Time;durP1;ratioP1;P1;durP2;ratioP2;P2;SDS_P1;SDS_P2;PMS_P1;PMS_P2;Temp;Humidity;BMP_temperature;BMP_pressure;BME280_temperature;BME280_humidity;BME280_pressure;Samples;Min_cycle;Max_cycle;Signal;HPM_P1;HPM_P2
2022/01/02 00:01:00;;;;;;;3.70;3.37;;;;;;;4.86;100.00;101295.41;20927185;28;20239;-63
2022/01/02 00:21:21;;;;;;;4.83;3.97;;;;;;;4.68;100.00;101300.25;20950514;27;20307;-62
2022/01/02 00:31:43;;;;;;;4.83;4.17;;;;;;;4.77;100.00;101291.22;20914165;28;20565;-62
2022/01/02 00:42:10;;;;;;;5.13;4.40;;;;;;;4.79;100.00;101280.59;20929048;28;20226;-63
2022/01/02 01:02:35;;;;;;;5.93;5.20;;;;;;;4.74;100.00;101270.13;21021812;27;21018;-62
2022/01/02 01:22:54;;;;;;;4.70;4.27;;;;;;;4.54;100.00;101253.91;21019069;27;20688;-63
2022/01/02 01:33:16;;;;;;;5.47;4.17;;;;;;;4.43;100.00;101237.44;21014397;28;20238;-63
2022/01/02 01:43:50;;;;;;;5.70;4.23;;;;;;;4.42;100.00;101204.88;21014121;28;20836;-63
2022/01/02 01:54:12;;;;;;;5.30;3.80;;;;;;;4.47;100.00;101189.75;21013078;28;20261;-63
2022/01/02 02:04:34;;;;;;;5.50;4.40;;;;;;;4.49;100.00;101189.72;21011054;28;20710;-63
2022/01/02 02:24:54;;;;;;;4.10;3.60;;;;;;;4.55;100.00;101150.78;20931048;27;20643;-63
2022/01/02 02:35:18;;;;;;;6.37;3.70;;;;;;;4.56;100.00;101139.31;20932647;28;20325;-63
2022/01/02 02:56:24;;;;;;;5.03;3.83;;;;;;;4.61;100.00;101137.41;20930651;28;20231;-64
2022/01/02 03:06:47;;;;;;;4.93;3.90;;;;;;;4.60;100.00;101135.66;20929164;28;20239;-63
2022/01/02 03:27:07;;;;;;;5.77;4.80;;;;;;;4.50;100.00;101076.03;21040482;27;20608;-63
2022/01/02 03:37:33;;;;;;;4.77;4.27;;;;;;;4.49;100.00;101062.84;21016722;27;20221;-63
2022/01/02 03:47:56;;;;;;;5.73;4.33;;;;;;;4.49;100.00;101042.56;21014710;27;20545;-63
2022/01/02 03:58:20;;;;;;;5.30;4.77;;;;;;;4.56;100.00;101030.94;20970344;27;20246;-63
2022/01/02 04:08:42;;;;;;;7.33;5.50;;;;;;;4.62;100.00;101014.91;21001407;27;20710;-63
2022/01/02 04:29:00;;;;;;;6.30;5.73;;;;;;;4.68;100.00;100948.66;20833220;27;20590;-63
2022/01/02 04:49:18;;;;;;;7.10;6.00;;;;;;;4.48;100.00;100902.56;21062197;27;20577;-62
2022/01/02 04:59:41;;;;;;;6.43;5.77;;;;;;;4.59;100.00;100885.47;21045463;28;20257;-61
2022/01/02 05:39:52;;;;;;;10.03;6.60;;;;;;;4.85;100.00;100825.59;21022674;27;20607;-64
2022/01/02 05:50:14;;;;;;;10.23;8.03;;;;;;;4.88;100.00;100786.72;21015177;28;20238;-63
2022/01/02 06:00:37;;;;;;;12.33;8.03;;;;;;;4.90;100.00;100784.03;21014577;28;20226;-63
2022/01/02 06:10:59;;;;;;;12.00;8.60;;;;;;;4.95;100.00;100782.09;21013898;28;20230;-63
2022/01/02 06:21:21;;;;;;;12.20;8.57;;;;;;;5.04;100.00;100771.22;21013900;28;20321;-65
2022/01/02 06:31:46;;;;;;;14.10;9.77;;;;;;;5.14;100.00;100756.75;21012664;28;20238;-63
2022/01/02 06:42:08;;;;;;;14.30;10.20;;;;;;;5.18;100.00;100737.22;21003428;28;20325;-63
2022/01/02 06:52:33;;;;;;;19.53;11.50;;;;;;;5.26;100.00;100708.69;20954987;28;20231;-63
2022/01/02 07:02:55;;;;;;;20.07;13.80;;;;;;;5.33;100.00;100718.09;20954497;28;20328;-64
2022/01/02 07:23:17;;;;;;;22.37;14.37;;;;;;;5.57;100.00;100696.94;21019408;27;20673;-61
2022/01/02 07:33:39;;;;;;;21.30;12.37;;;;;;;5.73;100.00;100676.91;21012576;28;20697;-61
2022/01/02 07:44:03;;;;;;;21.63;12.70;;;;;;;5.88;100.00;100659.56;21014843;28;20230;-62
2022/01/02 07:54:27;;;;;;;18.97;12.77;;;;;;;6.06;100.00;100633.22;21014481;28;20223;-62
2022/01/02 08:04:48;;;;;;;23.30;13.23;;;;;;;6.32;100.00;100618.91;21012172;28;20237;-62
2022/01/02 08:15:10;;;;;;;19.10;11.10;;;;;;;6.63;100.00;100618.47;20931965;28;20233;-61
2022/01/02 08:25:32;;;;;;;20.17;13.60;;;;;;;6.97;100.00;100614.34;20921690;28;20314;-62
2022/01/02 08:35:54;;;;;;;16.23;12.00;;;;;;;7.37;100.00;100589.47;20870734;28;20227;-61
2022/01/02 08:46:16;;;;;;;16.60;11.20;;;;;;;7.80;100.00;100593.63;20891495;28;20873;-62
2022/01/02 08:56:38;;;;;;;13.13;9.97;;;;;;;8.20;100.00;100574.78;20868662;28;20215;-62
2022/01/02 09:07:01;;;;;;;13.83;10.80;;;;;;;8.47;100.00;100532.63;20868139;28;20219;-62
2022/01/02 09:17:23;;;;;;;14.03;11.50;;;;;;;8.61;100.00;100503.50;20951393;28;20242;-62
2022/01/02 09:27:46;;;;;;;12.33;10.43;;;;;;;8.88;100.00;100490.53;20949494;28;20651;-63
2022/01/02 09:38:09;;;;;;;12.83;10.90;;;;;;;8.98;100.00;100472.25;20886284;28;20583;-64
2022/01/02 09:48:31;;;;;;;12.53;10.40;;;;;;;9.20;100.00;100442.63;20865934;28;20223;-63
2022/01/02 09:58:56;;;;;;;12.00;9.93;;;;;;;9.38;100.00;100391.84;20851831;28;20231;-62
2022/01/02 10:09:02;;;;;;;12.90;10.33;;;;;;;9.42;100.00;100352.53;20887431;28;20223;-62
2022/01/02 10:19:32;;;;;;;12.07;10.37;;;;;;;9.34;100.00;100318.38;20861000;28;20714;-63
2022/01/02 10:29:46;;;;;;;11.00;9.67;;;;;;;9.52;100.00;100311.13;20896358;28;20243;-62
2022/01/02 10:39:53;;;;;;;11.67;9.87;;;;;;;9.64;100.00;100267.75;20854993;28;20348;-61
2022/01/02 10:50:12;;;;;;;12.17;10.20;;;;;;;9.90;100.00;100265.28;20885747;28;20228;-61
2022/01/02 11:00:22;;;;;;;12.93;11.57;;;;;;;9.88;100.00;100249.38;20899198;28;20247;-62
2022/01/02 11:10:28;;;;;;;12.97;10.93;;;;;;;9.86;100.00;100213.13;20844154;28;20921;-62
2022/01/02 11:20:37;;;;;;;13.07;11.03;;;;;;;9.84;100.00;100201.69;20859903;28;20592;-62
2022/01/02 11:30:42;;;;;;;16.80;13.07;;;;;;;9.96;100.00;100171.59;20856441;28;20224;-62
2022/01/02 11:40:46;;;;;;;16.77;12.80;;;;;;;10.02;100.00;100150.72;20879022;28;20231;-63
2022/01/02 11:50:50;;;;;;;14.60;13.10;;;;;;;10.06;100.00;100146.06;20865089;28;20235;-64
2022/01/02 12:00:53;;;;;;;14.93;12.67;;;;;;;10.05;100.00;100123.00;20857129;28;20231;-64
2022/01/02 12:10:58;;;;;;;16.40;12.60;;;;;;;10.06;100.00;100100.72;20917636;28;20307;-63
2022/01/02 12:21:07;;;;;;;17.43;13.83;;;;;;;10.07;100.00;100057.97;20895607;28;20235;-63
2022/01/02 12:31:13;;;;;;;18.27;13.77;;;;;;;10.08;100.00;100042.84;20921758;28;20242;-63
2022/01/02 12:41:20;;;;;;;15.80;11.90;;;;;;;10.16;100.00;100036.97;20869806;28;20249;-63
2022/01/02 12:51:33;;;;;;;14.00;11.60;;;;;;;10.08;100.00;100034.84;20869468;28;20249;-63
2022/01/02 13:01:49;;;;;;;12.87;10.27;;;;;;;10.01;100.00;100012.22;20852893;28;20239;-63
2022/01/02 13:11:56;;;;;;;12.47;11.13;;;;;;;9.92;100.00;99999.50;20851610;28;20239;-64
2022/01/02 13:22:02;;;;;;;13.70;10.33;;;;;;;9.81;100.00;99992.22;20878724;28;20235;-64
2022/01/02 13:32:15;;;;;;;14.77;11.03;;;;;;;9.66;100.00;100010.06;20863348;28;20255;-63
2022/01/02 13:42:37;;;;;;;13.73;11.23;;;;;;;9.48;100.00;99987.28;20863257;28;20249;-63
2022/01/02 13:53:05;;;;;;;12.67;10.60;;;;;;;9.39;100.00;99958.59;20862536;28;20656;-62
2022/01/02 14:03:25;;;;;;;10.67;9.30;;;;;;;9.24;100.00;99959.59;20889791;28;20274;-63
2022/01/02 14:13:29;;;;;;;11.20;9.77;;;;;;;9.21;100.00;99954.47;20864153;28;20235;-62
2022/01/02 14:23:33;;;;;;;13.10;10.07;;;;;;;9.15;100.00;99949.53;20864252;28;20273;-63
2022/01/02 14:33:39;;;;;;;11.57;9.63;;;;;;;9.08;100.00;99905.63;20882521;28;20623;-64
2022/01/02 14:43:44;;;;;;;8.57;7.67;;;;;;;9.05;100.00;99909.38;20881182;28;20227;-64
2022/01/02 14:54:08;;;;;;;11.17;8.80;;;;;;;9.04;100.00;99894.34;20865087;28;20918;-63
2022/01/02 15:04:41;;;;;;;8.00;7.20;;;;;;;9.09;100.00;99881.56;20963069;28;20301;-64
2022/01/02 15:14:46;;;;;;;10.37;7.83;;;;;;;9.08;100.00;99879.00;20959543;28;20254;-64
2022/01/02 15:34:49;;;;;;;8.17;7.37;;;;;;;9.07;100.00;99846.22;21132944;27;20543;-64
2022/01/02 15:44:54;;;;;;;9.13;8.17;;;;;;;9.09;100.00;99833.66;21119160;28;20217;-63
2022/01/02 15:55:00;;;;;;;7.97;7.07;;;;;;;9.09;100.00;99838.13;21006196;28;20324;-62
2022/01/02 16:05:09;;;;;;;8.60;7.73;;;;;;;9.03;100.00;99813.66;21003984;28;20234;-61
2022/01/02 16:25:17;;;;;;;7.77;6.90;;;;;;;9.05;100.00;99783.41;21047243;27;20571;-62
2022/01/02 16:35:21;;;;;;;12.00;7.77;;;;;;;9.05;100.00;99770.13;21033641;27;20280;-62
2022/01/02 16:45:25;;;;;;;10.63;9.00;;;;;;;9.05;100.00;99762.13;21031445;27;20291;-62
2022/01/02 16:55:29;;;;;;;10.47;8.40;;;;;;;9.09;100.00;99731.66;21033551;27;20241;-63
2022/01/02 17:05:34;;;;;;;10.27;8.13;;;;;;;9.11;100.00;99724.44;21037680;27;20227;-63
2022/01/02 17:25:37;;;;;;;8.47;7.53;;;;;;;9.14;100.00;99713.59;21096262;27;20530;-60
2022/01/02 17:35:42;;;;;;;9.77;7.97;;;;;;;9.14;100.00;99689.63;21069830;28;20226;-60
2022/01/02 17:45:46;;;;;;;9.57;8.13;;;;;;;9.15;100.00;99646.09;21043865;28;20238;-63
2022/01/02 17:55:50;;;;;;;12.10;8.83;;;;;;;9.14;100.00;99644.38;21027658;28;20787;-66
2022/01/02 18:05:53;;;;;;;9.73;8.27;;;;;;;9.13;100.00;99632.03;21029770;28;20218;-62
2022/01/02 18:16:02;;;;;;;10.20;8.37;;;;;;;9.11;100.00;99617.97;21028120;28;20230;-62
2022/01/02 18:26:06;;;;;;;10.23;8.70;;;;;;;9.08;100.00;99607.53;21027821;27;20246;-62
2022/01/02 18:36:10;;;;;;;8.63;7.60;;;;;;;9.03;100.00;99547.53;20975647;28;20583;-63
2022/01/02 18:46:13;;;;;;;8.37;6.80;;;;;;;9.07;100.00;99542.81;20904044;28;20235;-60
2022/01/02 18:56:17;;;;;;;8.03;6.33;;;;;;;9.14;100.00;99537.94;20886786;28;20585;-63
2022/01/02 19:06:21;;;;;;;7.07;6.37;;;;;;;9.18;100.00;99486.16;20885285;28;20231;-62
2022/01/02 19:26:29;;;;;;;8.70;7.53;;;;;;;9.17;100.00;99508.44;21211837;27;21105;-64
2022/01/02 19:36:42;;;;;;;8.17;6.97;;;;;;;9.13;100.00;99472.34;21086365;28;20248;-61
2022/01/02 19:46:50;;;;;;;7.93;6.90;;;;;;;9.14;100.00;99456.28;21108025;28;20233;-62
2022/01/02 19:56:56;;;;;;;11.63;10.37;;;;;;;8.84;100.00;99469.94;21117733;28;20237;-61
2022/01/02 20:16:58;;;;;;;11.70;9.50;;;;;;;8.57;100.00;99403.56;21048702;27;20535;-61
2022/01/02 20:27:04;;;;;;;11.77;9.67;;;;;;;8.61;100.00;99391.78;21046933;28;20240;-60
2022/01/02 20:37:11;;;;;;;10.90;8.50;;;;;;;8.74;100.00;99413.03;21030043;28;20322;-70
2022/01/02 20:57:22;;;;;;;12.10;10.90;;;;;;;9.61;100.00;99380.88;20902766;27;20406;-59
2022/01/02 21:07:25;;;;;;;9.50;8.30;;;;;;;9.15;100.00;99354.16;20889144;28;20236;-59
2022/01/02 21:17:29;;;;;;;7.53;6.70;;;;;;;8.76;100.00;99327.81;20888625;28;20227;-59
2022/01/02 21:27:33;;;;;;;9.97;7.17;;;;;;;8.45;100.00;99326.53;20889610;28;20579;-59
2022/01/02 21:37:36;;;;;;;8.73;6.50;;;;;;;8.58;100.00;99311.38;20888660;28;20229;-59
2022/01/02 21:47:40;;;;;;;6.70;6.00;;;;;;;8.99;100.00;99301.22;20887667;28;20240;-60
2022/01/02 21:57:43;;;;;;;7.67;6.47;;;;;;;9.20;100.00;99298.78;20887025;28;20325;-59
2022/01/02 22:07:47;;;;;;;6.17;5.30;;;;;;;9.31;100.00;99292.63;20835398;28;20224;-59
2022/01/02 22:17:50;;;;;;;6.10;5.50;;;;;;;9.44;100.00;99301.41;20813506;28;20731;-59
2022/01/02 22:37:55;;;;;;;6.07;5.40;;;;;;;9.48;100.00;99324.19;21010077;27;1538043;-60
2022/01/02 22:47:59;;;;;;;7.10;5.07;;;;;;;9.41;100.00;99303.47;21057347;28;20728;-60
2022/01/02 22:58:04;;;;;;;7.20;4.90;;;;;;;9.49;100.00;99320.56;21056195;28;20222;-62
2022/01/02 23:08:09;;;;;;;5.57;5.00;;;;;;;9.45;100.00;99313.75;21055713;28;20226;-60
2022/01/02 23:18:12;;;;;;;5.90;4.70;;;;;;;9.44;100.00;99295.22;21054108;28;20226;-61
2022/01/02 23:28:16;;;;;;;5.47;4.40;;;;;;;9.55;100.00;99303.25;21053173;28;20230;-60
2022/01/02 23:38:19;;;;;;;6.23;5.10;;;;;;;9.54;100.00;99283.75;21053528;28;20281;-60
2022/01/02 23:48:25;;;;;;;5.70;4.30;;;;;;;9.60;100.00;99277.97;21000274;28;20592;-60
2022/01/02 23:58:29;;;;;;;5.80;4.30;;;;;;;9.69;100.00;99279.91;20995212;28;20563;-60
